Winthrop, Iowa
Current Conditions -  °F | °C
As of 9:35 PM on Wednesday 22 Oct 2014 (Local Time) from KIIB Reporting Station
Scattered Clouds Scattered Clouds  
Wind Chill:   Ceiling: Unl
Heat Index:   Visibility: 10mi
Dew Point:   Wind: 8mph
Humidity: 76%   Direction: 130°SE
Pressure: 30.17"   Gusts: NA
Location:  42.47°N, 91.73°W
Report Text: KIIB 230235Z AUTO 13007KT 10SM SCT095 08/04 A3017 RMK AO2
Loading
Personal Weather Stations






























Interactive Weather Map
Tropical Storm Tracking
New forecast layout! Learn more

10-Day Weather Forecast

Advertisements
Track Severe Weather on mobile